Time;durP1;ratioP1;P1;durP2;ratioP2;P2;SDS_P1;SDS_P2;PMS_P1;PMS_P2;Temp;Humidity;BMP_temperature;BMP_pressure;BME280_temperature;BME280_humidity;BME280_pressure;Samples;Min_cycle;Max_cycle;Signal;HPM_P1;HPM_P2
2022/01/31 00:02:03;;;;;;;7.83;2.73;;;1.40;99.90;;;;;;5057522;28;20187;-80
2022/01/31 00:04:29;;;;;;;7.50;2.50;;;1.20;99.90;;;;;;5024739;28;20179;-81
2022/01/31 00:06:56;;;;;;;6.20;3.33;;;;;;;;;;5075150;28;20245;-81
2022/01/31 00:09:23;;;;;;;7.20;3.43;;;1.00;99.90;;;;;;5075536;28;20180;-81
2022/01/31 00:12:06;;;;;;;8.90;3.00;;;;;;;;;;5040806;28;20179;-82
2022/01/31 00:17:02;;;;;;;9.10;4.60;;;0.90;99.90;;;;;;5057771;28;20210;-81
2022/01/31 00:19:28;;;;;;;6.80;4.17;;;1.00;99.90;;;;;;5057462;28;20179;-81
2022/01/31 00:21:54;;;;;;;6.87;3.50;;;1.40;99.90;;;;;;5074833;28;20205;-81
2022/01/31 00:24:20;;;;;;;10.03;3.03;;;;;;;;;;5057417;28;20179;-81
2022/01/31 00:26:46;;;;;;;9.80;3.37;;;1.40;99.90;;;;;;5074984;28;20206;-81
2022/01/31 00:29:11;;;;;;;6.03;3.10;;;1.60;99.90;;;;;;5055484;28;20270;-80
2022/01/31 00:31:37;;;;;;;5.03;2.33;;;1.30;99.90;;;;;;5057169;28;20624;-81
2022/01/31 00:34:03;;;;;;;9.43;3.80;;;1.60;99.90;;;;;;5023846;28;20183;-80
2022/01/31 00:36:28;;;;;;;6.33;3.07;;;1.80;99.90;;;;;;5057195;28;20175;-80
2022/01/31 00:38:54;;;;;;;4.27;2.77;;;1.80;99.90;;;;;;5056787;28;20211;-80
2022/01/31 00:41:20;;;;;;;7.20;2.53;;;1.70;99.90;;;;;;5057295;28;20204;-80
2022/01/31 00:43:56;;;;;;;5.80;2.33;;;;;;;;;;5056542;28;20185;-82
2022/01/31 00:46:27;;;;;;;5.87;2.67;;;2.10;99.90;;;;;;5058816;28;20177;-81
2022/01/31 00:48:53;;;;;;;3.97;2.60;;;1.70;99.90;;;;;;5057670;28;20184;-81
2022/01/31 00:51:19;;;;;;;5.90;2.50;;;1.70;99.90;;;;;;5040847;28;20186;-81
2022/01/31 00:53:45;;;;;;;8.43;3.43;;;1.80;99.90;;;;;;5056943;28;20619;-81
2022/01/31 00:56:10;;;;;;;6.70;3.40;;;1.90;99.90;;;;;;5076994;28;20342;-80
2022/01/31 00:58:36;;;;;;;8.30;2.70;;;;;;;;;;5063939;28;20295;-80
2022/01/31 01:01:02;;;;;;;7.23;2.83;;;1.80;99.90;;;;;;5056890;28;20194;-80
2022/01/31 01:03:28;;;;;;;6.23;3.37;;;1.60;99.90;;;;;;5074877;28;20167;-80
2022/01/31 01:05:54;;;;;;;7.07;3.67;;;1.60;99.90;;;;;;5074591;28;20186;-80
2022/01/31 01:08:20;;;;;;;6.60;3.70;;;1.60;99.90;;;;;;5074701;28;20183;-80
2022/01/31 01:10:46;;;;;;;8.27;4.00;;;;;;;;;;5056561;28;20574;-80
2022/01/31 01:13:12;;;;;;;8.57;4.33;;;1.60;99.90;;;;;;5074237;28;20179;-81
2022/01/31 01:15:38;;;;;;;10.93;5.27;;;1.60;99.90;;;;;;5074166;28;20182;-81
2022/01/31 01:18:05;;;;;;;11.37;4.93;;;;;;;;;;5039645;28;20214;-81
2022/01/31 01:20:30;;;;;;;45.53;22.63;;;1.50;99.90;;;;;;5072966;28;20179;-81
2022/01/31 01:22:56;;;;;;;15.13;6.17;;;2.30;99.90;;;;;;5056145;28;20278;-81
2022/01/31 01:25:22;;;;;;;11.27;5.43;;;2.80;99.90;;;;;;5074270;28;20215;-80
2022/01/31 01:27:51;;;;;;;9.17;3.73;;;1.50;99.90;;;;;;5039713;28;20254;-81
2022/01/31 01:30:17;;;;;;;9.87;3.60;;;2.00;99.90;;;;;;5056158;28;20179;-80
2022/01/31 01:33:09;;;;;;;4.43;2.50;;;1.50;99.90;;;;;;5056068;28;20185;-80
2022/01/31 01:35:33;;;;;;;6.13;2.93;;;1.60;99.90;;;;;;5058389;28;20248;-80
2022/01/31 01:38:04;;;;;;;9.53;3.93;;;1.50;99.90;;;;;;5073454;28;20218;-79
2022/01/31 01:40:31;;;;;;;5.03;2.87;;;1.40;99.90;;;;;;5073506;28;20288;-80
2022/01/31 01:42:57;;;;;;;5.70;2.67;;;;;;;;;;5073854;28;20175;-80
2022/01/31 01:45:25;;;;;;;10.67;3.10;;;;;;;;;;5073513;28;20186;-80
2022/01/31 01:47:50;;;;;;;13.77;6.20;;;1.70;99.90;;;;;;5072446;28;20632;-80
2022/01/31 01:50:16;;;;;;;7.47;3.90;;;1.60;99.90;;;;;;5055264;28;20182;-81
2022/01/31 01:52:42;;;;;;;7.20;3.30;;;1.60;99.90;;;;;;5073478;28;20620;-81
2022/01/31 01:55:09;;;;;;;9.17;2.93;;;1.60;99.90;;;;;;5055406;28;20211;-80
2022/01/31 01:57:34;;;;;;;8.67;3.27;;;1.50;99.90;;;;;;5055573;28;20633;-80
2022/01/31 02:00:00;;;;;;;9.30;3.17;;;1.50;99.90;;;;;;5055171;28;20266;-80
2022/01/31 02:02:26;;;;;;;5.33;1.87;;;1.60;99.90;;;;;;5055332;28;20672;-81
2022/01/31 02:04:52;;;;;;;8.67;3.53;;;1.40;99.90;;;;;;5072978;28;20174;-80
2022/01/31 02:07:19;;;;;;;7.33;3.63;;;1.40;99.90;;;;;;5072689;28;20183;-80
2022/01/31 02:09:53;;;;;;;6.37;3.60;;;1.50;99.90;;;;;;5055362;28;20236;-80
2022/01/31 02:12:19;;;;;;;6.47;3.53;;;;;;;;;;5072812;28;20217;-81
2022/01/31 02:14:45;;;;;;;9.80;3.17;;;1.40;99.90;;;;;;5071830;28;20194;-81
2022/01/31 02:17:10;;;;;;;10.67;4.23;;;1.40;99.90;;;;;;5054960;28;20206;-81
2022/01/31 02:19:37;;;;;;;4.80;3.50;;;1.40;99.90;;;;;;5055050;28;20671;-81
2022/01/31 02:22:03;;;;;;;6.40;3.50;;;1.20;99.90;;;;;;5072810;28;20205;-81
2022/01/31 02:24:30;;;;;;;5.83;3.47;;;1.30;99.90;;;;;;5055130;28;20216;-81
2022/01/31 02:26:57;;;;;;;7.00;3.67;;;1.50;99.90;;;;;;5072941;28;20542;-81
2022/01/31 02:29:23;;;;;;;7.00;4.40;;;1.50;99.90;;;;;;5054742;28;20359;-81
2022/01/31 02:31:49;;;;;;;8.37;4.90;;;1.20;99.90;;;;;;5055175;28;20281;-81
2022/01/31 02:34:16;;;;;;;5.27;3.73;;;1.30;99.90;;;;;;5054442;28;20211;-81
2022/01/31 02:36:43;;;;;;;9.83;3.60;;;1.90;99.90;;;;;;5072694;28;20265;-81
2022/01/31 02:39:09;;;;;;;5.10;3.50;;;1.20;99.90;;;;;;5072342;28;20281;-81
2022/01/31 02:41:42;;;;;;;8.13;4.13;;;2.90;99.90;;;;;;5054821;28;20179;-81
2022/01/31 02:44:14;;;;;;;4.13;2.53;;;1.20;99.90;;;;;;5054685;28;20211;-81
2022/01/31 02:46:47;;;;;;;8.40;5.60;;;0.90;99.90;;;;;;5073150;28;20167;-81
2022/01/31 02:49:16;;;;;;;9.60;4.43;;;1.30;99.90;;;;;;5072736;28;20171;-81
2022/01/31 02:51:47;;;;;;;4.07;3.00;;;2.40;99.90;;;;;;5054703;28;20179;-81
2022/01/31 02:54:13;;;;;;;7.80;3.57;;;1.40;99.90;;;;;;5059291;28;20163;-82
2022/01/31 02:56:40;;;;;;;11.73;6.53;;;1.00;99.90;;;;;;5058678;28;20186;-82
2022/01/31 02:59:06;;;;;;;5.87;3.30;;;1.10;99.90;;;;;;5058878;28;20580;-81
2022/01/31 03:01:36;;;;;;;3.37;2.50;;;1.20;99.90;;;;;;5059246;28;20662;-81
2022/01/31 03:04:02;;;;;;;8.60;4.23;;;;;;;;;;5076496;28;20183;-86
2022/01/31 03:06:28;;;;;;;4.83;3.07;;;;;;;;;;5075236;28;20198;-81
2022/01/31 03:08:54;;;;;;;6.37;2.40;;;1.20;99.90;;;;;;5076612;28;20178;-81
2022/01/31 03:11:19;;;;;;;7.27;3.00;;;0.90;99.90;;;;;;5058748;28;20233;-81
2022/01/31 03:13:45;;;;;;;2.83;2.30;;;1.30;99.90;;;;;;5076517;28;20175;-80
2022/01/31 03:16:11;;;;;;;4.07;1.90;;;1.20;99.90;;;;;;5058052;28;20242;-81
2022/01/31 03:18:36;;;;;;;2.47;2.00;;;1.30;99.90;;;;;;5076007;28;20280;-81
2022/01/31 03:21:02;;;;;;;2.40;1.77;;;3.30;99.90;;;;;;5076406;28;20235;-80
2022/01/31 03:23:28;;;;;;;5.17;2.57;;;1.20;99.90;;;;;;5058032;28;20187;-80
2022/01/31 03:25:53;;;;;;;5.90;3.00;;;1.00;99.90;;;;;;5076343;28;20525;-80
2022/01/31 03:28:19;;;;;;;4.07;2.47;;;1.20;99.90;;;;;;5057759;28;20261;-81
2022/01/31 03:30:45;;;;;;;5.57;2.70;;;1.50;99.90;;;;;;5058409;28;20181;-81
2022/01/31 03:33:11;;;;;;;5.73;2.43;;;1.10;99.90;;;;;;5057903;28;20628;-81
2022/01/31 03:35:36;;;;;;;5.37;2.50;;;0.90;99.90;;;;;;5076125;28;20661;-80
2022/01/31 03:38:02;;;;;;;3.17;2.63;;;0.80;99.90;;;;;;5075878;28;20285;-81
2022/01/31 03:40:28;;;;;;;4.27;2.50;;;1.40;99.90;;;;;;5058238;28;20226;-81
2022/01/31 03:42:54;;;;;;;9.27;3.27;;;1.20;99.90;;;;;;5058292;28;20179;-80
2022/01/31 03:45:20;;;;;;;5.33;2.07;;;1.30;99.90;;;;;;5064415;28;20200;-78
2022/01/31 03:47:47;;;;;;;4.57;2.43;;;;;;;;;;5053185;28;20195;-81
2022/01/31 03:50:18;;;;;;;4.73;2.60;;;0.70;99.90;;;;;;5058425;28;20289;-80
2022/01/31 03:52:44;;;;;;;5.03;2.53;;;1.10;99.90;;;;;;5075824;28;20176;-81
2022/01/31 03:55:12;;;;;;;4.67;2.60;;;2.90;99.90;;;;;;5075918;28;20178;-81
2022/01/31 03:57:39;;;;;;;4.93;2.33;;;;;;;;;;5075905;28;20209;-81
2022/01/31 04:00:10;;;;;;;5.87;2.73;;;0.90;99.90;;;;;;5074387;28;20179;-81
2022/01/31 04:02:36;;;;;;;5.30;2.83;;;0.90;99.90;;;;;;5075272;28;20175;-82
2022/01/31 04:05:02;;;;;;;7.50;2.53;;;;;;;;;;5057577;28;20183;-81
2022/01/31 04:07:28;;;;;;;8.10;4.47;;;1.20;99.90;;;;;;5057381;28;20257;-81
2022/01/31 04:09:53;;;;;;;9.97;4.10;;;0.90;99.90;;;;;;5057988;28;20519;-81
2022/01/31 04:12:20;;;;;;;11.87;4.70;;;1.30;99.90;;;;;;5057666;28;20652;-80
2022/01/31 04:14:45;;;;;;;8.87;4.53;;;3.20;99.90;;;;;;5075400;28;20199;-80
2022/01/31 04:17:11;;;;;;;7.47;4.03;;;;;;;;;;5057181;28;20269;-83
2022/01/31 04:19:38;;;;;;;6.40;3.33;;;1.10;99.90;;;;;;5074079;28;20232;-81
2022/01/31 04:22:08;;;;;;;4.47;2.87;;;1.10;99.90;;;;;;5057241;28;20585;-81
2022/01/31 04:24:35;;;;;;;10.67;5.27;;;1.00;99.90;;;;;;5057896;28;20169;-81
2022/01/31 04:27:05;;;;;;;13.13;5.53;;;;;;;;;;5057774;28;20270;-81
2022/01/31 04:29:34;;;;;;;4.33;3.37;;;0.90;99.90;;;;;;5074591;28;20246;-82
2022/01/31 04:32:00;;;;;;;6.93;3.33;;;1.10;99.90;;;;;;5057801;28;20185;-81
2022/01/31 04:34:25;;;;;;;5.43;2.70;;;0.70;99.90;;;;;;5074562;28;20175;-81
2022/01/31 04:36:51;;;;;;;5.03;3.33;;;0.90;99.90;;;;;;5057088;28;20203;-81
2022/01/31 04:39:19;;;;;;;5.00;2.27;;;0.50;99.90;;;;;;5074659;28;20226;-81
2022/01/31 04:41:46;;;;;;;4.87;2.73;;;0.40;99.90;;;;;;5057486;28;20172;-81
2022/01/31 04:44:13;;;;;;;3.83;2.47;;;2.40;99.90;;;;;;5074962;28;20184;-81
2022/01/31 04:46:40;;;;;;;7.73;2.57;;;1.00;99.90;;;;;;5056851;28;20278;-81
2022/01/31 04:49:06;;;;;;;5.07;2.77;;;;;;;;;;5040485;28;20198;-80
2022/01/31 04:51:32;;;;;;;5.37;2.33;;;-0.10;99.90;;;;;;5073162;28;20183;-81
2022/01/31 04:53:58;;;;;;;4.43;2.47;;;0.10;99.90;;;;;;5074416;28;20306;-81
2022/01/31 04:56:24;;;;;;;3.57;2.13;;;;;;;;;;5074185;28;20297;-81
2022/01/31 04:58:50;;;;;;;5.33;2.37;;;;;;;;;;5073017;28;20217;-80
2022/01/31 05:01:16;;;;;;;2.97;2.30;;;-0.20;99.90;;;;;;5072902;28;20181;-85
2022/01/31 05:03:44;;;;;;;4.03;2.13;;;-0.30;99.90;;;;;;5056587;28;20194;-81
2022/01/31 05:06:12;;;;;;;5.40;2.30;;;-0.30;99.90;;;;;;5040303;28;20596;-81
2022/01/31 05:08:39;;;;;;;3.97;2.30;;;;;;;;;;5056161;28;20231;-81
2022/01/31 05:11:08;;;;;;;5.77;3.20;;;-0.10;99.90;;;;;;5074774;28;20176;-81
2022/01/31 05:13:33;;;;;;;4.57;3.27;;;-0.20;99.90;;;;;;5056959;28;20248;-81
2022/01/31 05:15:59;;;;;;;5.80;3.47;;;0.10;99.90;;;;;;5055604;28;20619;-80
2022/01/31 05:18:25;;;;;;;12.10;4.80;;;;;;;;;;5039029;28;20234;-81
2022/01/31 05:20:51;;;;;;;9.93;5.07;;;0.00;99.90;;;;;;5056162;28;20186;-81
2022/01/31 05:23:16;;;;;;;6.93;4.37;;;0.00;99.90;;;;;;5074115;28;20652;-81
2022/01/31 05:25:42;;;;;;;12.23;5.47;;;2.10;99.90;;;;;;5022980;28;20270;-81
2022/01/31 05:28:07;;;;;;;8.20;4.80;;;0.40;99.90;;;;;;5056026;28;20231;-81
2022/01/31 05:30:33;;;;;;;14.27;6.07;;;0.20;99.90;;;;;;5039171;28;20212;-81
2022/01/31 05:32:59;;;;;;;12.17;4.53;;;0.30;99.90;;;;;;5056042;28;20221;-81
2022/01/31 05:35:25;;;;;;;15.20;4.67;;;;;;;;;;5073619;28;20209;-80
2022/01/31 05:37:50;;;;;;;19.40;3.50;;;0.40;99.90;;;;;;5056001;28;20264;-81
2022/01/31 05:40:16;;;;;;;12.20;3.90;;;2.40;99.90;;;;;;5055963;28;20539;-81
2022/01/31 05:42:42;;;;;;;15.03;3.37;;;;;;;;;;5028375;28;20674;-81
2022/01/31 05:45:08;;;;;;;10.23;3.63;;;0.30;99.90;;;;;;5029958;28;20255;-81
2022/01/31 05:47:35;;;;;;;13.63;3.93;;;0.50;99.90;;;;;;5029265;28;20704;-81
2022/01/31 05:50:00;;;;;;;15.90;3.57;;;0.80;99.90;;;;;;5045137;28;20184;-81
2022/01/31 05:52:27;;;;;;;10.97;5.93;;;0.80;99.90;;;;;;5014028;28;20274;-81
2022/01/31 05:54:52;;;;;;;11.67;3.53;;;3.40;99.90;;;;;;5043822;28;20189;-81
2022/01/31 05:57:18;;;;;;;22.00;9.77;;;;;;;;;;5034804;28;20218;-81
2022/01/31 05:59:44;;;;;;;20.50;7.77;;;0.80;99.90;;;;;;5034565;28;20183;-81
2022/01/31 06:02:10;;;;;;;11.27;4.43;;;0.80;99.90;;;;;;5012793;28;20197;-81
2022/01/31 06:04:35;;;;;;;14.63;5.07;;;1.00;99.90;;;;;;5032806;28;20192;-81
2022/01/31 06:07:01;;;;;;;13.33;4.60;;;1.10;99.90;;;;;;5050853;28;20192;-81
2022/01/31 06:09:28;;;;;;;17.27;4.27;;;1.10;99.90;;;;;;5057907;28;20215;-81
2022/01/31 06:11:55;;;;;;;11.23;6.37;;;3.00;99.90;;;;;;5032605;28;20541;-81
2022/01/31 06:14:21;;;;;;;16.27;6.00;;;0.90;99.90;;;;;;5033175;28;20178;-81
2022/01/31 06:16:47;;;;;;;15.00;6.40;;;1.00;99.90;;;;;;5050376;28;20679;-81
2022/01/31 06:19:12;;;;;;;21.40;5.27;;;0.90;99.90;;;;;;5032915;28;20691;-81
2022/01/31 06:21:38;;;;;;;28.60;6.63;;;1.00;99.90;;;;;;5050114;28;20660;-81
2022/01/31 06:24:09;;;;;;;21.47;7.57;;;0.80;99.90;;;;;;5050576;28;20241;-81
2022/01/31 06:26:36;;;;;;;12.47;4.57;;;0.90;99.90;;;;;;5050348;28;20263;-81
2022/01/31 06:29:01;;;;;;;13.27;5.97;;;0.70;99.90;;;;;;5032465;28;20292;-82
2022/01/31 06:31:28;;;;;;;15.87;7.47;;;0.90;99.90;;;;;;5016173;28;20180;-82
2022/01/31 06:33:54;;;;;;;19.77;8.07;;;0.70;99.90;;;;;;5051600;28;20191;-83
2022/01/31 06:36:22;;;;;;;19.27;6.83;;;0.80;99.90;;;;;;5033128;28;20686;-84
2022/01/31 06:38:48;;;;;;;11.47;4.30;;;0.90;99.90;;;;;;5033340;28;20241;-82
2022/01/31 06:41:16;;;;;;;10.50;3.53;;;0.80;99.90;;;;;;5053899;28;20198;-81
2022/01/31 06:43:42;;;;;;;14.33;4.47;;;2.50;99.90;;;;;;5065067;28;20266;-81
2022/01/31 06:46:08;;;;;;;9.63;3.93;;;;;;;;;;5033533;28;20553;-82
2022/01/31 06:48:34;;;;;;;11.87;4.33;;;0.80;99.90;;;;;;5035543;28;20609;-81
2022/01/31 06:51:00;;;;;;;16.27;4.27;;;0.80;99.90;;;;;;5035049;28;20199;-81
2022/01/31 06:53:28;;;;;;;15.47;4.10;;;;;;;;;;5032176;28;20193;-83
2022/01/31 06:55:55;;;;;;;12.90;3.90;;;0.80;99.90;;;;;;5032940;28;20195;-82
2022/01/31 06:58:21;;;;;;;17.03;4.73;;;;;;;;;;5032739;28;20698;-80
2022/01/31 07:00:47;;;;;;;16.00;5.93;;;0.70;99.90;;;;;;5055503;28;20189;-81
2022/01/31 07:03:13;;;;;;;13.67;4.43;;;0.80;99.90;;;;;;5037732;28;20201;-81
2022/01/31 07:05:43;;;;;;;14.13;4.40;;;0.90;99.90;;;;;;5050442;28;20195;-80
2022/01/31 07:08:10;;;;;;;6.47;3.13;;;0.90;99.90;;;;;;5050583;28;20235;-80
2022/01/31 07:10:37;;;;;;;12.63;3.80;;;1.60;99.90;;;;;;5032146;28;20283;-81
2022/01/31 07:13:11;;;;;;;15.77;4.07;;;;;;;;;;5052222;28;20183;-80
2022/01/31 07:15:37;;;;;;;13.67;3.67;;;0.90;99.90;;;;;;5035104;28;20187;-81
2022/01/31 07:18:03;;;;;;;12.77;4.40;;;;;;;;;;5058242;28;20208;-82
2022/01/31 07:20:41;;;;;;;17.20;5.13;;;;;;;;;;5033421;28;20185;-84
2022/01/31 07:23:18;;;;;;;9.20;4.03;;;;;;;;;;5050968;28;20207;-80
2022/01/31 07:25:44;;;;;;;14.40;4.33;;;1.00;99.90;;;;;;5033011;28;20309;-80
2022/01/31 07:28:12;;;;;;;14.67;4.80;;;1.00;99.90;;;;;;5032909;28;20250;-81
2022/01/31 07:30:39;;;;;;;10.20;4.30;;;1.00;99.90;;;;;;5050290;28;20192;-83
2022/01/31 07:33:09;;;;;;;10.90;4.10;;;1.00;99.90;;;;;;5030240;28;20195;-81
2022/01/31 07:35:34;;;;;;;14.37;4.00;;;1.00;99.90;;;;;;5049536;28;20184;-80
2022/01/31 07:38:00;;;;;;;14.33;4.83;;;1.10;99.90;;;;;;5015878;28;20303;-82
2022/01/31 07:40:26;;;;;;;11.33;4.57;;;1.20;99.90;;;;;;5056983;28;20276;-82
2022/01/31 07:42:52;;;;;;;12.77;4.37;;;1.10;99.90;;;;;;5035629;28;20270;-80
2022/01/31 07:45:17;;;;;;;6.90;3.57;;;3.10;99.90;;;;;;5034448;28;20201;-81
2022/01/31 07:47:43;;;;;;;9.33;3.03;;;;;;;;;;5036108;28;20652;-81
2022/01/31 07:50:10;;;;;;;20.37;7.30;;;0.90;99.90;;;;;;5037280;28;20184;-80
2022/01/31 07:52:35;;;;;;;22.50;9.13;;;0.80;99.90;;;;;;5044326;28;20540;-81
2022/01/31 07:55:01;;;;;;;13.33;5.83;;;2.60;99.90;;;;;;5063001;28;20249;-81
2022/01/31 07:57:27;;;;;;;33.73;11.23;;;1.00;99.90;;;;;;5028904;28;20879;-82
2022/01/31 07:59:53;;;;;;;26.40;11.57;;;2.80;99.90;;;;;;5041069;28;20211;-81
2022/01/31 08:02:20;;;;;;;16.27;5.83;;;1.10;99.90;;;;;;5068262;28;20226;-83
2022/01/31 08:04:47;;;;;;;26.83;7.10;;;1.00;99.90;;;;;;5068527;28;20184;-82
2022/01/31 08:07:14;;;;;;;12.07;4.00;;;;;;;;;;5050482;28;20214;-80
2022/01/31 08:09:41;;;;;;;14.93;5.00;;;1.00;99.90;;;;;;5053198;28;20194;-82
2022/01/31 08:12:07;;;;;;;16.83;4.20;;;1.00;99.90;;;;;;5034108;28;20188;-81
2022/01/31 08:14:33;;;;;;;22.63;7.30;;;1.00;99.90;;;;;;5040632;28;20191;-82
2022/01/31 08:16:58;;;;;;;13.13;5.40;;;1.10;99.90;;;;;;5026954;28;20328;-82
2022/01/31 08:19:24;;;;;;;24.17;6.33;;;1.20;99.90;;;;;;5039789;28;20223;-83
2022/01/31 08:21:50;;;;;;;15.47;4.70;;;;;;;;;;5041842;28;20204;-81
2022/01/31 08:24:17;;;;;;;9.33;3.90;;;;;;;;;;5059383;28;20272;-82
2022/01/31 08:26:43;;;;;;;12.97;5.43;;;;;;;;;;5047942;28;20305;-81
2022/01/31 08:29:20;;;;;;;17.20;4.10;;;1.10;99.90;;;;;;5043426;28;20498;-82
2022/01/31 08:31:48;;;;;;;22.17;7.70;;;1.10;99.90;;;;;;5025432;28;20183;-83
2022/01/31 08:36:42;;;;;;;13.30;5.03;;;1.70;99.90;;;;;;5034955;28;20192;-82
2022/01/31 08:39:11;;;;;;;15.40;5.33;;;1.10;99.90;;;;;;5035141;28;20217;-83
2022/01/31 08:41:41;;;;;;;10.47;3.73;;;3.40;99.90;;;;;;5052169;28;20631;-86
2022/01/31 08:44:12;;;;;;;17.20;5.67;;;1.20;99.90;;;;;;5019394;28;20185;-82
2022/01/31 08:46:42;;;;;;;14.77;6.03;;;;;;;;;;5034461;28;20596;-83
2022/01/31 08:49:09;;;;;;;13.57;5.63;;;1.20;99.90;;;;;;5034293;28;20216;-83
2022/01/31 08:51:35;;;;;;;18.70;6.10;;;1.30;99.90;;;;;;5034791;28;20309;-84
2022/01/31 08:54:02;;;;;;;14.90;4.93;;;1.20;99.90;;;;;;5035258;28;20184;-83
2022/01/31 08:56:28;;;;;;;16.33;4.63;;;1.20;99.90;;;;;;5035115;28;20238;-82
2022/01/31 08:58:55;;;;;;;16.37;4.40;;;1.30;99.90;;;;;;5034432;28;20223;-83
2022/01/31 09:01:23;;;;;;;14.53;4.20;;;2.20;99.90;;;;;;5057632;28;20180;-82
2022/01/31 09:06:23;;;;;;;11.03;3.80;;;1.60;99.90;;;;;;5052098;28;20191;-82
2022/01/31 09:08:49;;;;;;;16.23;3.97;;;2.20;99.90;;;;;;5053138;28;20277;-82
2022/01/31 09:11:15;;;;;;;15.47;3.37;;;3.20;99.90;;;;;;5036809;28;20241;-81
2022/01/31 09:13:41;;;;;;;6.73;3.30;;;;;;;;;;5053448;28;20188;-88
2022/01/31 09:16:07;;;;;;;11.10;3.10;;;1.00;99.90;;;;;;5042721;28;20190;-82
2022/01/31 09:18:33;;;;;;;17.57;4.17;;;3.00;99.90;;;;;;5035660;28;20835;-83
2022/01/31 09:21:00;;;;;;;13.47;3.30;;;1.10;99.90;;;;;;5053969;28;20182;-83
2022/01/31 09:23:29;;;;;;;12.80;4.00;;;1.00;99.90;;;;;;5052431;28;20262;-82
2022/01/31 09:25:56;;;;;;;8.90;3.00;;;1.00;99.90;;;;;;5055317;28;20710;-82
2022/01/31 09:28:22;;;;;;;16.73;4.10;;;1.00;99.90;;;;;;5033939;28;20240;-83
2022/01/31 09:30:49;;;;;;;10.53;4.07;;;1.00;99.90;;;;;;5051726;28;20186;-82
2022/01/31 09:33:15;;;;;;;12.30;3.33;;;1.00;99.90;;;;;;5033868;28;20226;-82
2022/01/31 09:35:42;;;;;;;14.33;3.40;;;1.10;99.90;;;;;;5034584;28;20183;-83
2022/01/31 09:38:11;;;;;;;9.70;3.30;;;1.10;99.90;;;;;;5014641;28;20240;-83
2022/01/31 09:40:37;;;;;;;12.53;3.57;;;0.90;99.90;;;;;;5050950;28;20206;-82
2022/01/31 09:51:13;;;;;;;14.63;3.67;;;1.70;99.90;;;;;;5051136;28;20270;-82
2022/01/31 09:53:59;;;;;;;7.63;3.70;;;1.20;99.90;;;;;;5033727;28;20180;-81
2022/01/31 09:56:33;;;;;;;4.73;2.90;;;1.20;99.90;;;;;;5040784;28;20215;-82
2022/01/31 09:59:00;;;;;;;11.87;4.03;;;1.20;99.90;;;;;;5053093;28;20627;-81
2022/01/31 10:01:41;;;;;;;5.57;3.03;;;1.50;99.90;;;;;;5035298;28;20183;-82
2022/01/31 10:04:18;;;;;;;14.40;3.67;;;1.40;99.90;;;;;;5033499;28;20180;-82
2022/01/31 10:06:50;;;;;;;11.50;3.90;;;1.80;99.90;;;;;;5051397;28;20667;-82
2022/01/31 10:09:27;;;;;;;4.90;3.23;;;1.90;99.90;;;;;;5051220;28;20219;-81
2022/01/31 10:12:06;;;;;;;13.33;3.93;;;1.90;99.90;;;;;;5030166;28;20536;-80
2022/01/31 10:17:27;;;;;;;9.77;2.87;;;2.00;99.90;;;;;;5051064;28;20196;-82
2022/01/31 10:19:56;;;;;;;12.10;3.10;;;1.90;99.90;;;;;;5050509;28;20687;-81
2022/01/31 10:22:27;;;;;;;9.97;3.90;;;1.70;99.90;;;;;;5051299;28;20195;-81
2022/01/31 10:24:54;;;;;;;8.77;2.93;;;3.80;99.90;;;;;;5032803;28;20667;-82
2022/01/31 10:27:28;;;;;;;10.73;3.27;;;1.60;99.90;;;;;;5033099;28;20172;-81
2022/01/31 10:30:07;;;;;;;11.77;3.67;;;1.10;99.90;;;;;;5051359;28;20228;-81
2022/01/31 10:32:36;;;;;;;8.07;3.13;;;1.20;99.90;;;;;;5033521;28;20280;-82
2022/01/31 10:35:05;;;;;;;13.50;4.77;;;1.20;99.90;;;;;;5033078;28;20183;-82
2022/01/31 10:37:33;;;;;;;6.43;3.77;;;1.10;99.90;;;;;;5051051;28;20203;-81
2022/01/31 10:53:43;;;;;;;11.50;2.50;;;1.70;99.90;;;;;;5050628;28;20202;-81
2022/01/31 10:56:09;;;;;;;14.47;3.80;;;1.80;99.90;;;;;;5033765;28;20184;-82
2022/01/31 10:58:51;;;;;;;7.13;3.37;;;1.90;99.90;;;;;;5000647;28;20223;-81
2022/01/31 11:01:17;;;;;;;8.43;3.10;;;2.20;99.90;;;;;;5050821;28;20277;-81
2022/01/31 11:03:45;;;;;;;5.37;2.50;;;2.20;99.90;;;;;;5012863;28;20185;-80
2022/01/31 11:06:11;;;;;;;15.40;3.40;;;2.00;99.90;;;;;;5032597;28;20521;-82
2022/01/31 11:08:38;;;;;;;9.93;3.00;;;2.00;99.90;;;;;;5016207;28;20250;-81
2022/01/31 11:11:05;;;;;;;6.07;2.60;;;2.00;99.90;;;;;;5031816;28;20197;-81
2022/01/31 11:13:33;;;;;;;12.23;3.50;;;2.40;99.90;;;;;;5016816;28;20197;-81
2022/01/31 11:16:00;;;;;;;6.53;3.27;;;1.80;99.90;;;;;;5038530;28;20300;-81
2022/01/31 11:18:30;;;;;;;6.33;2.63;;;3.30;99.90;;;;;;5054023;28;20218;-81
2022/01/31 11:21:01;;;;;;;12.43;2.87;;;1.70;99.90;;;;;;5035829;28;20596;-81
2022/01/31 11:23:28;;;;;;;7.43;3.20;;;2.80;99.90;;;;;;5054630;28;20230;-81
2022/01/31 11:26:00;;;;;;;10.27;3.40;;;1.70;99.90;;;;;;5054338;28;20179;-84
2022/01/31 11:28:31;;;;;;;8.93;3.17;;;2.00;99.90;;;;;;5031636;28;20249;-82
2022/01/31 11:30:57;;;;;;;16.20;5.37;;;2.50;99.90;;;;;;5023726;28;20220;-83
2022/01/31 11:33:24;;;;;;;20.33;6.30;;;1.70;99.90;;;;;;5028544;28;20197;-81
2022/01/31 11:35:51;;;;;;;9.73;3.37;;;1.60;99.90;;;;;;5028667;28;20220;-83
2022/01/31 11:38:17;;;;;;;12.77;5.17;;;1.50;99.90;;;;;;5012758;28;20212;-81
2022/01/31 11:40:44;;;;;;;16.57;5.00;;;1.80;99.90;;;;;;5025838;28;20204;-81
2022/01/31 11:43:11;;;;;;;12.93;3.97;;;3.40;99.90;;;;;;5011155;28;20181;-81
2022/01/31 11:45:40;;;;;;;13.00;3.53;;;1.80;99.90;;;;;;4997698;28;20181;-81
2022/01/31 11:48:17;;;;;;;4.10;2.40;;;1.80;99.90;;;;;;5028199;28;20188;-83
2022/01/31 11:50:45;;;;;;;8.50;2.30;;;1.80;99.90;;;;;;5013252;28;20204;-80
2022/01/31 11:53:11;;;;;;;8.57;2.60;;;1.70;99.90;;;;;;5029040;28;20187;-81
2022/01/31 11:55:41;;;;;;;8.23;2.93;;;1.80;99.90;;;;;;5027373;28;20264;-81
2022/01/31 11:58:17;;;;;;;10.80;3.00;;;1.70;99.90;;;;;;5028811;28;20311;-81
2022/01/31 12:00:46;;;;;;;6.17;3.20;;;3.60;99.90;;;;;;5030410;28;20271;-81
2022/01/31 12:03:15;;;;;;;5.83;2.83;;;1.80;99.90;;;;;;5030716;28;20556;-81
2022/01/31 12:05:43;;;;;;;12.83;3.40;;;1.80;99.90;;;;;;5028261;28;20191;-81
2022/01/31 12:08:18;;;;;;;15.53;3.67;;;1.80;99.90;;;;;;5029038;28;20200;-81
2022/01/31 12:10:47;;;;;;;14.10;5.10;;;1.60;99.90;;;;;;5026066;28;20179;-82
2022/01/31 12:13:43;;;;;;;9.40;4.00;;;2.10;99.90;;;;;;5024718;28;20181;-82
2022/01/31 12:22:05;;;;;;;15.67;4.53;;;1.50;99.90;;;;;;5016023;28;20189;-84
2022/01/31 12:24:46;;;;;;;9.20;4.83;;;1.70;99.90;;;;;;5027941;28;20292;-82
2022/01/31 12:27:15;;;;;;;11.07;3.77;;;1.80;99.90;;;;;;5016095;28;20657;-82
2022/01/31 12:29:56;;;;;;;9.80;2.73;;;1.80;99.90;;;;;;4989452;28;1099965;-85
2022/01/31 12:32:25;;;;;;;12.73;3.50;;;2.00;99.90;;;;;;5023443;28;20729;-81
2022/01/31 12:34:55;;;;;;;10.87;3.40;;;1.70;99.90;;;;;;5031676;28;20191;-82
2022/01/31 12:37:29;;;;;;;9.77;2.40;;;1.60;99.90;;;;;;5016762;28;20268;-83
2022/01/31 12:40:03;;;;;;;20.20;5.53;;;1.60;99.90;;;;;;5030880;28;20177;-83
2022/01/31 12:42:48;;;;;;;12.13;5.13;;;1.60;99.90;;;;;;5022424;28;20235;-83
2022/01/31 12:45:21;;;;;;;13.07;4.33;;;1.60;99.90;;;;;;5011125;28;20572;-84
2022/01/31 12:48:05;;;;;;;8.20;3.50;;;1.70;99.90;;;;;;5024824;28;20268;-84
2022/01/31 12:50:35;;;;;;;14.30;3.63;;;1.70;99.90;;;;;;5022835;28;20193;-84
2022/01/31 12:53:05;;;;;;;5.77;3.20;;;1.70;99.90;;;;;;5020292;28;20656;-83
2022/01/31 12:55:34;;;;;;;9.77;2.90;;;1.60;99.90;;;;;;5022515;28;20188;-83
2022/01/31 12:58:00;;;;;;;6.20;3.17;;;1.60;99.90;;;;;;5015174;28;20224;-83
2022/01/31 13:00:41;;;;;;;11.10;4.10;;;1.40;99.90;;;;;;4991846;28;20274;-84
2022/01/31 13:03:11;;;;;;;7.30;3.40;;;2.50;99.90;;;;;;5013528;28;20189;-83
2022/01/31 13:05:40;;;;;;;13.53;3.00;;;1.70;99.90;;;;;;5025138;28;20231;-82
2022/01/31 13:08:25;;;;;;;12.13;3.90;;;2.40;99.90;;;;;;5027038;28;20278;-86
2022/01/31 13:10:52;;;;;;;15.43;4.63;;;1.50;99.90;;;;;;5029599;28;20187;-81
2022/01/31 13:13:40;;;;;;;12.33;4.83;;;2.40;99.90;;;;;;5009914;28;20662;-82
2022/01/31 13:16:09;;;;;;;28.67;9.37;;;1.30;99.90;;;;;;5009003;28;20204;-84
2022/01/31 13:18:34;;;;;;;15.47;6.37;;;1.30;99.90;;;;;;5026591;28;20546;-83
2022/01/31 13:21:03;;;;;;;22.60;7.77;;;1.20;99.90;;;;;;5020189;28;20192;-84
2022/01/31 13:23:30;;;;;;;15.20;5.23;;;2.80;99.90;;;;;;5006881;28;20192;-82
2022/01/31 13:26:14;;;;;;;14.80;4.23;;;2.20;99.90;;;;;;5012091;28;20199;-82
2022/01/31 13:28:49;;;;;;;8.83;3.90;;;2.80;99.90;;;;;;5036975;28;20232;-82
2022/01/31 13:31:15;;;;;;;11.80;4.30;;;2.90;99.90;;;;;;5034566;28;20586;-83
2022/01/31 13:33:45;;;;;;;13.43;3.43;;;1.10;99.90;;;;;;5034772;28;20243;-83
2022/01/31 13:36:12;;;;;;;7.10;3.50;;;;;;;;;;5034183;28;20731;-82
2022/01/31 13:38:38;;;;;;;8.73;3.93;;;1.20;99.90;;;;;;5034231;28;20218;-81
2022/01/31 13:41:04;;;;;;;5.50;3.73;;;1.10;99.90;;;;;;5052852;28;20188;-82
2022/01/31 13:43:33;;;;;;;8.90;3.90;;;2.10;99.90;;;;;;5034111;28;20184;-83
2022/01/31 13:51:42;;;;;;;9.67;3.73;;;1.30;99.90;;;;;;5051515;28;20686;-82